Time;durP1;ratioP1;P1;durP2;ratioP2;P2;SDS_P1;SDS_P2;PMS_P1;PMS_P2;Temp;Humidity;BMP_temperature;BMP_pressure;BME280_temperature;BME280_humidity;BME280_pressure;Samples;Min_cycle;Max_cycle;Signal;HPM_P1;HPM_P2
2023/10/07 00:01:25;;;;;;;;;;;;;;;18.14;54.10;101235.59;6087372;23;6838;-73
2023/10/07 00:03:53;;;;;;;;;;;;;;;18.13;54.47;101233.84;6088331;23;6774;-74
2023/10/07 00:06:25;;;;;;;;;;;;;;;18.10;54.68;101237.22;6088508;23;6775;-73
2023/10/07 00:08:51;;;;;;;;;;;;;;;18.08;54.27;101231.13;6065521;23;6966;-73
2023/10/07 00:11:17;;;;;;;;;;;;;;;18.07;54.60;101234.53;6113188;23;7220;-73
2023/10/07 00:13:43;;;;;;;;;;;;;;;18.06;54.74;101237.97;6064202;23;6982;-73
2023/10/07 00:16:17;;;;;;;;;;;;;;;18.06;54.31;101245.75;6088399;23;6771;-74
2023/10/07 00:18:43;;;;;;;;;;;;;;;18.04;54.98;101243.09;6087073;23;7843;-73
2023/10/07 00:21:15;;;;;;;;;;;;;;;18.07;55.07;101238.84;6087507;23;6779;-73
2023/10/07 00:23:42;;;;;;;;;;;;;;;18.07;54.98;101246.63;6092207;23;6909;-72
2023/10/07 00:26:09;;;;;;;;;;;;;;;18.08;55.15;101244.09;6091627;23;6957;-73
2023/10/07 00:28:36;;;;;;;;;;;;;;;18.10;55.26;101249.28;6089072;23;6771;-72
2023/10/07 00:31:22;;;;;;;;;;;;;;;18.11;54.79;101245.91;6090127;23;6929;-73
2023/10/07 00:34:02;;;;;;;;;;;;;;;18.10;54.80;101237.22;6068962;23;7052;-73
2023/10/07 00:38:59;;;;;;;;;;;;;;;18.09;55.71;101240.66;6089953;23;6902;-74
2023/10/07 00:41:39;;;;;;;;;;;;;;;18.11;55.32;101233.78;6064265;23;6962;-73
2023/10/07 00:44:22;;;;;;;;;;;;;;;18.12;55.62;101239.88;6091843;23;6798;-72
2023/10/07 00:47:08;;;;;;;;;;;;;;;18.12;55.72;101235.53;6089872;23;6952;-72
2023/10/07 00:49:42;;;;;;;;;;;;;;;18.16;55.12;101229.63;6093842;23;6982;-74
2023/10/07 00:52:24;;;;;;;;;;;;;;;18.20;55.48;101216.75;6089340;23;6809;-72
2023/10/07 00:54:57;;;;;;;;;;;;;;;18.21;55.33;101206.44;6089043;23;6770;-74
2023/10/07 01:02:50;;;;;;;;;;;;;;;18.18;55.75;101222.78;6089564;23;11430;-73
2023/10/07 01:05:27;;;;;;;;;;;;;;;18.17;55.32;101209.75;6091310;23;6771;-74
2023/10/07 01:07:53;;;;;;;;;;;;;;;18.18;55.24;101212.41;6087839;23;7024;-74
2023/10/07 01:10:27;;;;;;;;;;;;;;;18.20;55.27;101214.16;6090233;23;8065;-73
2023/10/07 01:12:55;;;;;;;;;;;;;;;18.20;55.71;101215.00;6066060;23;7133;-73
2023/10/07 01:15:27;;;;;;;;;;;;;;;18.21;55.36;101215.91;6066442;23;6967;-73
2023/10/07 01:17:57;;;;;;;;;;;;;;;18.21;55.64;101223.69;6065970;23;8543;-73
2023/10/07 01:23:08;;;;;;;;;;;;;;;18.25;56.25;101212.56;6090124;23;6767;-73
2023/10/07 01:25:36;;;;;;;;;;;;;;;18.26;55.79;101219.53;6088670;23;6771;-72
2023/10/07 01:28:04;;;;;;;;;;;;;;;18.28;56.09;101225.63;6064714;23;6977;-72
2023/10/07 01:30:34;;;;;;;;;;;;;;;18.32;56.35;101222.28;6065200;23;7260;-72
2023/10/07 01:36:06;;;;;;;;;;;;;;;18.40;55.87;101206.97;6098415;23;6763;-73
2023/10/07 01:38:31;;;;;;;;;;;;;;;18.40;55.73;101193.97;6087989;23;7198;-73
2023/10/07 01:41:04;;;;;;;;;;;;;;;18.42;55.69;101187.13;6086307;23;6759;-73
2023/10/07 01:43:30;;;;;;;;;;;;;;;18.39;56.02;101179.22;6089370;23;7008;-72
2023/10/07 01:45:56;;;;;;;;;;;;;;;18.38;56.04;101172.28;6063905;23;6936;-73
2023/10/07 01:48:21;;;;;;;;;;;;;;;18.36;55.63;101180.03;6090391;23;6996;-72
2023/10/07 01:50:49;;;;;;;;;;;;;;;18.35;56.22;101169.59;6088504;23;6961;-73
2023/10/07 01:53:15;;;;;;;;;;;;;;;18.36;55.98;101190.41;6088468;23;6955;-72
2023/10/07 01:55:52;;;;;;;;;;;;;;;18.39;56.50;101179.22;6088241;23;6767;-73
2023/10/07 01:58:19;;;;;;;;;;;;;;;18.42;56.58;101182.78;6087045;23;6978;-73
2023/10/07 02:00:51;;;;;;;;;;;;;;;18.44;56.41;101186.28;6089570;23;6775;-72
2023/10/07 02:03:21;;;;;;;;;;;;;;;18.50;56.58;101192.50;6065529;23;8709;-72
2023/10/07 02:05:48;;;;;;;;;;;;;;;18.53;56.56;101196.06;6089016;23;6966;-72
2023/10/07 02:08:20;;;;;;;;;;;;;;;18.60;56.54;101210.09;6092305;23;6866;-71
2023/10/07 02:10:57;;;;;;;;;;;;;;;18.65;56.30;101205.03;6089475;23;6841;-73
2023/10/07 02:13:27;;;;;;;;;;;;;;;18.70;56.40;101206.06;6089891;23;7229;-73
2023/10/07 02:15:57;;;;;;;;;;;;;;;18.74;56.22;101198.38;6089754;23;6775;-72
2023/10/07 02:18:27;;;;;;;;;;;;;;;18.80;56.33;101189.00;6088379;23;6775;-72
2023/10/07 02:21:05;;;;;;;;;;;;;;;18.86;56.44;101186.56;6090732;23;6771;-72
2023/10/07 02:23:40;;;;;;;;;;;;;;;18.90;56.55;101197.91;6090356;23;6933;-73
2023/10/07 02:28:44;;;;;;;;;;;;;;;18.95;56.37;101192.00;6098056;23;6759;-72
2023/10/07 02:31:18;;;;;;;;;;;;;;;18.98;56.01;101197.25;6064780;23;7257;-73
2023/10/07 02:33:45;;;;;;;;;;;;;;;19.01;56.61;101210.34;6088306;23;6779;-74
2023/10/07 02:36:28;;;;;;;;;;;;;;;19.03;56.30;101202.63;6089546;23;6937;-73
2023/10/07 02:39:45;;;;;;;;;;;;;;;19.05;56.59;101205.25;6089130;23;6786;-72
2023/10/07 02:41:51;;;;;;;;;;;;;;;19.08;56.42;101202.72;6089408;23;6775;-72
2023/10/07 02:44:27;;;;;;;;;;;;;;;19.10;56.58;101206.25;6095052;23;6930;-75
2023/10/07 02:46:56;;;;;;;;;;;;;;;19.11;56.46;101192.41;6094445;23;6771;-77
2023/10/07 02:49:22;;;;;;;;;;;;;;;19.11;56.28;101200.19;6094183;23;6946;-77
2023/10/07 02:51:58;;;;;;;;;;;;;;;19.10;56.54;101194.16;6094659;23;6915;-77
2023/10/07 02:54:32;;;;;;;;;;;;;;;19.08;56.19;101194.94;6092390;23;6838;-75
2023/10/07 02:57:07;;;;;;;;;;;;;;;19.07;56.19;101195.78;6096593;23;6779;-77
2023/10/07 02:59:50;;;;;;;;;;;;;;;19.06;56.50;101191.44;6094342;23;6846;-77
2023/10/07 03:08:01;;;;;;;;;;;;;;;19.01;56.54;101202.56;6092342;23;6864;-76
2023/10/07 03:10:33;;;;;;;;;;;;;;;18.98;56.54;101205.06;6092734;23;6962;-77
2023/10/07 03:12:59;;;;;;;;;;;;;;;18.95;56.55;101211.88;6091392;23;6992;-77
2023/10/07 03:18:00;;;;;;;;;;;;;;;18.91;56.76;101197.06;6103549;23;6798;-75
2023/10/07 03:20:31;;;;;;;;;;;;;;;18.91;56.91;101197.94;6097659;23;6988;-76
2023/10/07 03:23:14;;;;;;;;;;;;;;;18.91;56.95;101197.06;6074068;23;6994;-77
2023/10/07 03:28:24;;;;;;;;;;;;;;;18.90;56.69;101182.34;6105767;23;6771;-78
2023/10/07 03:30:55;;;;;;;;;;;;;;;18.90;57.45;101183.19;6096256;23;6783;-77
2023/10/07 03:33:49;;;;;;;;;;;;;;;18.91;57.55;101184.94;6097244;23;6771;-78
2023/10/07 03:38:57;;;;;;;;;;;;;;;18.98;57.36;101201.59;6107220;23;6771;-78
2023/10/07 03:41:23;;;;;;;;;;;;;;;19.01;57.06;101205.16;6097999;23;7764;-77
2023/10/07 03:43:50;;;;;;;;;;;;;;;19.06;57.13;101201.81;6097827;23;6951;-77
2023/10/07 03:46:17;;;;;;;;;;;;;;;19.07;57.56;101206.19;6095004;23;6771;-78
2023/10/07 03:48:53;;;;;;;;;;;;;;;19.11;57.06;101206.28;6093210;23;6853;-77
2023/10/07 03:51:22;;;;;;;;;;;;;;;19.13;57.44;101193.34;6097355;23;6783;-75
2023/10/07 03:54:00;;;;;;;;;;;;;;;19.16;57.26;101196.03;6090759;23;6935;-72
2023/10/07 03:56:26;;;;;;;;;;;;;;;19.19;57.31;101184.84;6089458;23;6955;-71
2023/10/07 03:58:53;;;;;;;;;;;;;;;19.20;57.20;101197.84;6089160;23;6759;-72
2023/10/07 04:01:18;;;;;;;;;;;;;;;19.21;56.91;101183.13;6088091;23;6779;-73
2023/10/07 04:03:59;;;;;;;;;;;;;;;19.23;57.25;101190.13;6088109;23;6849;-72
2023/10/07 04:06:31;;;;;;;;;;;;;;;19.25;57.01;101195.34;6089670;23;6909;-73
2023/10/07 04:09:07;;;;;;;;;;;;;;;19.26;56.91;101185.00;6088976;23;6779;-74
2023/10/07 04:11:34;;;;;;;;;;;;;;;19.27;57.54;101167.72;6067603;23;7244;-73
2023/10/07 04:14:07;;;;;;;;;;;;;;;19.28;57.29;101167.72;6088622;23;6767;-73
2023/10/07 04:16:33;;;;;;;;;;;;;;;19.29;57.15;101174.69;6067154;23;7054;-72
2023/10/07 04:21:45;;;;;;;;;;;;;;;19.28;57.30;101180.72;6097258;23;6763;-72
2023/10/07 04:24:13;;;;;;;;;;;;;;;19.28;57.53;101185.91;6064496;23;6958;-73
2023/10/07 04:26:42;;;;;;;;;;;;;;;19.29;57.30;101169.47;6089267;23;6771;-72
2023/10/07 04:29:14;;;;;;;;;;;;;;;19.28;57.48;101167.72;6087701;23;7235;-73
2023/10/07 04:31:51;;;;;;;;;;;;;;;19.29;57.36;101166.88;6088092;23;6850;-73
2023/10/07 04:34:33;;;;;;;;;;;;;;;19.28;57.28;101159.94;6086910;23;6986;-72
2023/10/07 04:39:38;;;;;;;;;;;;;;;19.29;57.46;101163.41;6089577;23;7190;-72
2023/10/07 04:42:07;;;;;;;;;;;;;;;19.28;57.66;101162.53;6088815;23;7257;-73
2023/10/07 04:50:05;;;;;;;;;;;;;;;19.22;57.42;101154.59;6088176;23;6767;-73
2023/10/07 04:52:40;;;;;;;;;;;;;;;19.19;57.15;101148.44;6089750;23;6853;-72
2023/10/07 04:55:11;;;;;;;;;;;;;;;19.19;57.61;101145.84;6087780;23;7081;-72
2023/10/07 05:00:19;;;;;;;;;;;;;;;19.18;57.62;101137.16;6098054;23;6759;-73
2023/10/07 05:02:45;;;;;;;;;;;;;;;19.21;57.36;101137.22;6089210;23;11885;-72
2023/10/07 05:05:13;;;;;;;;;;;;;;;19.22;57.61;101133.81;6087969;23;6911;-73
2023/10/07 05:07:43;;;;;;;;;;;;;;;19.24;57.77;101137.31;6089419;23;6779;-73
2023/10/07 05:10:09;;;;;;;;;;;;;;;19.25;57.32;101131.28;6087580;23;6771;-72
2023/10/07 05:12:35;;;;;;;;;;;;;;;19.26;57.32;101129.53;6087972;23;6970;-74
2023/10/07 05:15:03;;;;;;;;;;;;;;;19.26;57.45;101132.16;6088629;23;6827;-74
2023/10/07 05:17:32;;;;;;;;;;;;;;;19.26;57.45;101130.44;6064289;23;7390;-73
2023/10/07 05:19:58;;;;;;;;;;;;;;;19.26;57.69;101125.25;6088299;23;6914;-72
2023/10/07 05:22:25;;;;;;;;;;;;;;;19.25;57.21;101131.28;6087340;23;6771;-73
2023/10/07 05:24:56;;;;;;;;;;;;;;;19.25;57.57;101139.09;6064174;23;6968;-74
2023/10/07 05:27:23;;;;;;;;;;;;;;;19.23;57.48;101147.66;6087739;23;6989;-72
2023/10/07 05:29:49;;;;;;;;;;;;;;;19.25;57.54;101153.78;6088607;23;6767;-73
2023/10/07 05:32:17;;;;;;;;;;;;;;;19.23;57.70;101158.97;6087340;23;7384;-73
2023/10/07 05:34:45;;;;;;;;;;;;;;;19.26;57.31;101159.03;6064872;23;7236;-74
2023/10/07 05:37:12;;;;;;;;;;;;;;;19.27;57.56;101157.31;6090415;23;7032;-73
2023/10/07 05:39:41;;;;;;;;;;;;;;;19.28;57.76;101152.13;6088670;23;6967;-73
2023/10/07 05:42:08;;;;;;;;;;;;;;;19.29;57.64;101148.69;6065978;23;6953;-73
2023/10/07 05:44:37;;;;;;;;;;;;;;;19.31;57.87;101158.25;6065788;23;7111;-72
2023/10/07 05:47:05;;;;;;;;;;;;;;;19.32;57.95;101160.03;6090764;23;6775;-74
2023/10/07 05:49:31;;;;;;;;;;;;;;;19.32;57.51;101160.88;6090581;23;7054;-73
2023/10/07 05:51:58;;;;;;;;;;;;;;;19.35;57.64;101163.56;6114472;23;6962;-73
2023/10/07 05:54:31;;;;;;;;;;;;;;;19.38;57.81;101160.16;6092019;23;6834;-75
2023/10/07 05:56:58;;;;;;;;;;;;;;;19.39;57.54;101173.19;6087977;23;7980;-73
2023/10/07 05:59:24;;;;;;;;;;;;;;;19.40;57.52;101169.75;6089328;23;6968;-75
2023/10/07 06:01:50;;;;;;;;;;;;;;;19.42;57.65;101167.19;6090232;23;6924;-74
2023/10/07 06:04:16;;;;;;;;;;;;;;;19.45;58.00;101168.97;6091950;23;6770;-74
2023/10/07 06:06:44;;;;;;;;;;;;;;;19.48;57.72;101172.53;6091368;23;6775;-73
2023/10/07 06:09:14;;;;;;;;;;;;;;;19.52;57.58;101176.06;6089996;23;7037;-74
2023/10/07 06:11:42;;;;;;;;;;;;;;;19.55;57.85;101178.75;6111624;23;7036;-73
2023/10/07 06:14:10;;;;;;;;;;;;;;;19.59;57.63;101183.19;6086915;23;6775;-77
2023/10/07 06:16:37;;;;;;;;;;;;;;;19.62;57.55;101177.19;6087730;23;7052;-79
2023/10/07 06:19:02;;;;;;;;;;;;;;;19.66;57.63;101189.41;6089493;23;7085;-78
2023/10/07 06:21:29;;;;;;;;;;;;;;;19.68;57.49;101192.91;6089923;23;7612;-77
2023/10/07 06:24:06;;;;;;;;;;;;;;;19.70;57.59;101201.63;6061742;23;6971;-77
2023/10/07 06:26:32;;;;;;;;;;;;;;;19.74;57.66;101205.16;6088098;23;7205;-77
2023/10/07 06:29:05;;;;;;;;;;;;;;;19.75;57.54;101201.72;6087486;23;6763;-75
2023/10/07 06:31:31;;;;;;;;;;;;;;;19.78;57.17;101207.00;6086746;23;6775;-77
2023/10/07 06:34:03;;;;;;;;;;;;;;;19.80;57.38;101201.00;6086730;23;6967;-77
2023/10/07 06:36:31;;;;;;;;;;;;;;;19.83;57.44;101190.66;6061631;23;7032;-76
2023/10/07 06:39:05;;;;;;;;;;;;;;;19.85;57.36;101201.13;6087996;23;7153;-77
2023/10/07 06:41:32;;;;;;;;;;;;;;;19.89;57.91;101195.13;6088938;23;6834;-76
2023/10/07 06:43:59;;;;;;;;;;;;;;;19.95;57.73;101212.63;6088762;23;6955;-78
2023/10/07 06:46:40;;;;;;;;;;;;;;;20.01;57.53;101207.56;6088725;23;7402;-77
2023/10/07 06:49:18;;;;;;;;;;;;;;;20.08;57.32;101212.03;6088950;23;6775;-78
2023/10/07 06:51:45;;;;;;;;;;;;;;;20.15;57.31;101209.56;6089162;23;6813;-77
2023/10/07 06:54:13;;;;;;;;;;;;;;;20.19;57.36;101207.06;6087335;23;6834;-77
2023/10/07 06:56:39;;;;;;;;;;;;;;;20.23;57.17;101202.81;6065149;23;6964;-78
2023/10/07 06:59:06;;;;;;;;;;;;;;;20.28;56.98;101219.41;6087626;23;7280;-77
2023/10/07 07:04:11;;;;;;;;;;;;;;;20.30;56.80;101209.00;6095436;23;7203;-78
2023/10/07 07:06:46;;;;;;;;;;;;;;;20.30;56.72;101217.72;6088752;23;6779;-76
2023/10/07 07:12:04;;;;;;;;;;;;;;;20.27;56.81;101207.22;6087587;23;6775;-77
2023/10/07 07:14:33;;;;;;;;;;;;;;;20.29;56.98;101205.56;6086908;23;6862;-78
2023/10/07 07:20:19;;;;;;;;;;;;;;;20.34;56.57;101214.31;6106996;23;6783;-77
2023/10/07 07:22:45;;;;;;;;;;;;;;;20.39;56.65;101222.22;6088418;23;6783;-78
2023/10/07 07:25:39;;;;;;;;;;;;;;;20.40;57.10;101223.97;6088173;23;7017;-76
2023/10/07 07:28:06;;;;;;;;;;;;;;;20.42;56.42;101221.41;6083928;23;7149;-77
2023/10/07 07:30:32;;;;;;;;;;;;;;;20.44;56.63;101232.72;6063046;23;7007;-80
2023/10/07 07:33:06;;;;;;;;;;;;;;;20.45;56.61;101242.28;6061214;23;6960;-79
2023/10/07 07:35:39;;;;;;;;;;;;;;;20.48;56.65;101235.44;6087813;23;6763;-79
2023/10/07 07:38:26;;;;;;;;;;;;;;;20.50;56.77;101231.13;6111316;23;7000;-77
2023/10/07 07:41:08;;;;;;;;;;;;;;;20.52;56.69;101223.34;6087894;23;6787;-76
2023/10/07 07:43:38;;;;;;;;;;;;;;;20.53;56.60;101226.00;6087416;23;7125;-77
2023/10/07 07:46:18;;;;;;;;;;;;;;;20.56;56.31;101225.16;6087489;23;7212;-78
2023/10/07 07:48:48;;;;;;;;;;;;;;;20.56;56.36;101222.56;6086853;23;6771;-76
2023/10/07 07:51:20;;;;;;;;;;;;;;;20.56;56.29;101206.06;6086092;23;6910;-78
2023/10/07 07:53:46;;;;;;;;;;;;;;;20.56;56.49;101203.47;6087715;23;6771;-77
2023/10/07 07:56:13;;;;;;;;;;;;;;;20.54;56.30;101216.44;6086915;23;6779;-76
2023/10/07 07:58:47;;;;;;;;;;;;;;;20.54;56.57;101213.84;6087436;23;7388;-77
2023/10/07 08:01:17;;;;;;;;;;;;;;;20.57;56.55;101210.44;6086010;23;7058;-78
2023/10/07 08:03:42;;;;;;;;;;;;;;;20.61;56.52;101223.53;6086941;23;7082;-78
2023/10/07 08:06:12;;;;;;;;;;;;;;;20.70;56.41;101228.03;6086692;23;7065;-75
2023/10/07 08:08:39;;;;;;;;;;;;;;;20.77;56.52;101223.84;6087944;23;6775;-76
2023/10/07 08:11:05;;;;;;;;;;;;;;;20.83;56.39;101226.56;6087440;23;6771;-77
2023/10/07 08:13:31;;;;;;;;;;;;;;;20.87;56.17;101217.97;6089561;23;6783;-77
2023/10/07 08:16:05;;;;;;;;;;;;;;;20.91;56.17;101224.13;6086977;23;6999;-78
2023/10/07 08:18:31;;;;;;;;;;;;;;;20.93;56.51;101231.09;6087893;23;7078;-78
2023/10/07 08:21:13;;;;;;;;;;;;;;;20.96;55.98;101235.50;6086572;23;6800;-76
2023/10/07 08:23:41;;;;;;;;;;;;;;;20.99;55.95;101250.31;6088511;23;7866;-78
2023/10/07 08:26:20;;;;;;;;;;;;;;;21.06;56.25;101247.00;6086933;23;6775;-76
2023/10/07 08:28:47;;;;;;;;;;;;;;;21.16;56.08;101237.59;6087198;23;7010;-77
2023/10/07 08:31:18;;;;;;;;;;;;;;;21.26;55.96;101246.47;6086915;23;7630;-77
2023/10/07 08:34:33;;;;;;;;;;;;;;;21.34;55.79;101244.84;6079483;23;7038;-79
2023/10/07 08:36:43;;;;;;;;;;;;;;;21.38;55.53;101238.84;6098685;23;6764;-75
2023/10/07 08:39:09;;;;;;;;;;;;;;;21.38;55.47;101241.44;6105178;23;6771;-76
2023/10/07 08:41:40;;;;;;;;;;;;;;;21.36;55.29;101243.16;6079212;23;7299;-79
2023/10/07 08:44:17;;;;;;;;;;;;;;;21.35;55.74;101252.69;6079374;23;7039;-78
2023/10/07 08:46:49;;;;;;;;;;;;;;;21.42;55.66;101250.19;6105211;23;7288;-75
2023/10/07 08:49:27;;;;;;;;;;;;;;;21.53;55.48;101252.97;6108419;23;6930;-76
2023/10/07 08:51:54;;;;;;;;;;;;;;;21.64;55.53;101241.00;6105818;23;6775;-78
2023/10/07 08:54:31;;;;;;;;;;;;;;;21.74;55.09;101242.91;6077817;23;6978;-76
2023/10/07 08:57:15;;;;;;;;;;;;;;;21.85;55.27;101244.81;6110313;23;6779;-76
2023/10/07 08:59:49;;;;;;;;;;;;;;;21.95;54.83;101249.31;6106458;23;7383;-76
2023/10/07 09:02:26;;;;;;;;;;;;;;;21.99;54.19;101243.25;6083951;23;7229;-76
2023/10/07 09:04:57;;;;;;;;;;;;;;;21.97;54.35;101244.97;6087961;23;7182;-75
2023/10/07 09:07:30;;;;;;;;;;;;;;;21.96;54.48;101244.94;6107814;23;7138;-77
2023/10/07 09:10:14;;;;;;;;;;;;;;;21.94;54.07;101238.84;6106818;23;6775;-77
2023/10/07 09:12:56;;;;;;;;;;;;;;;21.89;53.74;101246.59;6088704;23;7157;-75
2023/10/07 09:15:26;;;;;;;;;;;;;;;21.86;54.40;101233.50;6106535;23;6982;-79
2023/10/07 09:18:05;;;;;;;;;;;;;;;21.86;54.34;101233.50;6106772;23;7006;-78
2023/10/07 09:20:35;;;;;;;;;;;;;;;21.88;54.16;101231.81;6106715;23;6775;-77
2023/10/07 09:23:07;;;;;;;;;;;;;;;21.89;54.30;101224.00;6108546;23;6839;-75
2023/10/07 09:25:33;;;;;;;;;;;;;;;21.96;53.97;101231.91;6107238;23;6799;-79
2023/10/07 09:28:01;;;;;;;;;;;;;;;22.00;53.86;101233.72;6080964;23;7030;-76
2023/10/07 09:30:37;;;;;;;;;;;;;;;22.01;54.16;101228.50;6107013;23;6803;-76
2023/10/07 09:33:18;;;;;;;;;;;;;;;22.06;54.03;101220.72;6129969;23;6984;-78
2023/10/07 09:35:49;;;;;;;;;;;;;;;22.10;54.36;101214.72;6078219;23;7095;-77
2023/10/07 09:38:33;;;;;;;;;;;;;;;22.17;53.39;101215.66;6106957;23;7297;-76
2023/10/07 09:43:51;;;;;;;;;;;;;;;22.32;53.91;101204.53;6092247;23;6771;-78
2023/10/07 09:46:24;;;;;;;;;;;;;;;22.41;53.55;101207.25;6085899;23;6977;-77
2023/10/07 09:48:57;;;;;;;;;;;;;;;22.53;53.41;101209.16;6063856;23;7376;-76
2023/10/07 09:51:25;;;;;;;;;;;;;;;22.65;53.55;101212.78;6085268;23;6835;-76
2023/10/07 09:53:50;;;;;;;;;;;;;;;22.78;53.57;101198.97;6061731;23;7050;-78
2023/10/07 09:56:39;;;;;;;;;;;;;;;22.91;53.43;101191.25;6088663;23;6759;-78
2023/10/07 09:59:22;;;;;;;;;;;;;;;23.03;53.40;101193.97;6084919;23;6767;-76
2023/10/07 10:01:58;;;;;;;;;;;;;;;23.19;52.91;101200.22;6088008;23;6968;-79
2023/10/07 10:04:48;;;;;;;;;;;;;;;23.47;52.86;101203.09;6086779;23;7025;-78
2023/10/07 10:07:29;;;;;;;;;;;;;;;24.13;53.21;101207.84;6086630;23;7049;-76
2023/10/07 10:10:14;;;;;;;;;;;;;;;25.22;51.88;101202.00;6065232;23;7312;-79
2023/10/07 10:16:12;;;;;;;;;;;;;;;27.50;47.97;101192.16;6093643;23;7016;-79
2023/10/07 10:18:40;;;;;;;;;;;;;;;28.34;45.45;101185.97;6087567;23;6942;-78
2023/10/07 10:21:09;;;;;;;;;;;;;;;28.98;44.66;101185.03;6088102;23;6969;-77
2023/10/07 10:23:40;;;;;;;;;;;;;;;29.42;42.78;101182.50;6089322;23;6783;-78
2023/10/07 10:26:20;;;;;;;;;;;;;;;29.74;42.32;101182.81;6139370;23;7028;-79
2023/10/07 10:29:04;;;;;;;;;;;;;;;29.94;41.80;101185.94;6125997;23;6970;-79
2023/10/07 10:31:34;;;;;;;;;;;;;;;30.13;40.98;101185.56;6147589;23;6790;-79
2023/10/07 10:34:05;;;;;;;;;;;;;;;30.35;39.89;101183.31;6121837;23;6942;-78
2023/10/07 10:36:38;;;;;;;;;;;;;;;30.49;39.58;101176.84;6147684;23;6954;-79
2023/10/07 10:39:22;;;;;;;;;;;;;;;30.63;39.67;101172.09;6123742;23;7232;-79
2023/10/07 10:41:49;;;;;;;;;;;;;;;30.76;39.19;101170.06;6125467;23;7013;-77
2023/10/07 10:44:16;;;;;;;;;;;;;;;31.04;38.80;101173.78;6148591;23;6763;-79
2023/10/07 10:46:47;;;;;;;;;;;;;;;31.41;38.88;101170.19;6121818;23;6882;-78
2023/10/07 10:49:20;;;;;;;;;;;;;;;31.80;37.81;101176.19;6148700;23;6771;-78
2023/10/07 10:51:50;;;;;;;;;;;;;;;32.05;37.74;101164.88;6124038;23;6989;-79
2023/10/07 10:54:21;;;;;;;;;;;;;;;32.24;37.04;101170.50;6145551;23;7272;-75
2023/10/07 10:56:58;;;;;;;;;;;;;;;32.59;36.82;101167.69;6146984;23;6961;-76
2023/10/07 10:59:42;;;;;;;;;;;;;;;32.88;35.68;101166.69;6144390;23;6833;-74
2023/10/07 11:02:17;;;;;;;;;;;;;;;32.94;35.38;101174.50;6122564;23;6986;-74
2023/10/07 11:04:51;;;;;;;;;;;;;;;33.09;35.16;101177.56;6145127;23;7269;-75
2023/10/07 11:07:18;;;;;;;;;;;;;;;33.25;34.66;101183.19;6145714;23;6953;-74
2023/10/07 11:09:51;;;;;;;;;;;;;;;33.27;34.59;101176.03;6148487;23;6943;-73
2023/10/07 11:12:18;;;;;;;;;;;;;;;33.22;34.44;101177.97;6146400;23;6847;-73
2023/10/07 11:14:48;;;;;;;;;;;;;;;33.14;34.28;101169.44;6144730;23;6775;-74
2023/10/07 11:17:15;;;;;;;;;;;;;;;33.17;34.25;101169.31;6124558;23;6934;-74
2023/10/07 11:19:53;;;;;;;;;;;;;;;33.17;33.77;101159.53;6146536;23;6771;-73
2023/10/07 11:22:22;;;;;;;;;;;;;;;33.23;33.68;101169.09;6146930;23;7191;-74
2023/10/07 11:24:50;;;;;;;;;;;;;;;33.39;33.91;101167.63;6147535;23;6851;-74
2023/10/07 11:27:23;;;;;;;;;;;;;;;33.52;33.27;101170.72;6143636;23;6968;-74
2023/10/07 11:30:03;;;;;;;;;;;;;;;33.61;32.91;101160.69;6119199;23;7270;-74
2023/10/07 11:32:38;;;;;;;;;;;;;;;33.75;33.46;101168.16;6142085;23;6779;-75
2023/10/07 11:35:27;;;;;;;;;;;;;;;33.84;32.92;101169.56;6149002;23;6946;-75
2023/10/07 11:37:58;;;;;;;;;;;;;;;33.84;32.59;101164.25;6145049;23;6778;-76
2023/10/07 11:40:30;;;;;;;;;;;;;;;33.74;32.52;101169.91;6147318;23;6913;-74
2023/10/07 11:42:58;;;;;;;;;;;;;;;33.62;32.19;101170.38;6147921;23;6779;-75
2023/10/07 11:45:26;;;;;;;;;;;;;;;33.50;31.85;101158.41;6122823;23;6975;-73
2023/10/07 11:47:56;;;;;;;;;;;;;;;33.44;32.20;101150.66;6147310;23;6775;-73
2023/10/07 11:50:29;;;;;;;;;;;;;;;33.39;31.70;101164.09;6148405;23;6782;-74
2023/10/07 11:52:55;;;;;;;;;;;;;;;33.21;31.64;101147.03;6148861;23;6835;-73
2023/10/07 11:55:20;;;;;;;;;;;;;;;33.06;31.78;101151.97;6121520;23;6935;-72
2023/10/07 11:57:46;;;;;;;;;;;;;;;33.03;31.71;101148.56;6092326;23;6922;-74
2023/10/07 12:00:34;;;;;;;;;;;;;;;33.05;32.20;101152.91;6117319;23;6804;-73
2023/10/07 12:03:06;;;;;;;;;;;;;;;33.09;31.92;101149.19;6137462;23;11290;-74
2023/10/07 12:05:32;;;;;;;;;;;;;;;33.19;31.37;101141.78;6116984;23;7069;-74
2023/10/07 12:08:01;;;;;;;;;;;;;;;33.19;30.94;101144.44;6114533;23;7256;-74
2023/10/07 12:10:39;;;;;;;;;;;;;;;33.01;30.74;101153.06;6115198;23;7171;-76
2023/10/07 12:13:15;;;;;;;;;;;;;;;32.38;31.65;101143.59;6116354;23;6988;-75
2023/10/07 12:15:44;;;;;;;;;;;;;;;31.52;32.52;101147.84;6111802;23;6795;-75
2023/10/07 12:18:12;;;;;;;;;;;;;;;30.67;33.27;101153.53;6115041;23;6787;-75
2023/10/07 12:20:39;;;;;;;;;;;;;;;29.91;34.25;101151.66;6115185;23;7088;-75
2023/10/07 12:23:07;;;;;;;;;;;;;;;29.29;35.67;101144.06;6117478;23;6779;-75
2023/10/07 12:25:35;;;;;;;;;;;;;;;28.82;35.93;101144.81;6115239;23;6846;-75
2023/10/07 12:28:05;;;;;;;;;;;;;;;28.41;36.71;101134.91;6118289;23;6782;-75
2023/10/07 12:30:32;;;;;;;;;;;;;;;28.08;36.82;101142.34;6139253;23;6948;-75
2023/10/07 12:32:57;;;;;;;;;;;;;;;27.84;37.44;101147.06;6116126;23;6787;-75
2023/10/07 12:35:24;;;;;;;;;;;;;;;27.64;38.18;101151.69;6115487;23;6925;-75
2023/10/07 12:37:52;;;;;;;;;;;;;;;27.47;38.09;101150.09;6116268;23;7350;-75
2023/10/07 12:40:18;;;;;;;;;;;;;;;27.32;38.38;101145.84;6116193;23;7080;-76
2023/10/07 12:42:46;;;;;;;;;;;;;;;27.21;38.68;101156.47;6115869;23;6970;-76
2023/10/07 12:45:12;;;;;;;;;;;;;;;27.11;39.31;101152.19;6115273;23;7091;-75
2023/10/07 12:47:42;;;;;;;;;;;;;;;27.05;39.45;101157.53;6116166;23;7034;-76
2023/10/07 12:50:20;;;;;;;;;;;;;;;27.00;39.77;101153.16;6091107;23;6979;-76
2023/10/07 12:52:55;;;;;;;;;;;;;;;26.96;39.66;101148.81;6116410;23;6783;-74
2023/10/07 12:55:22;;;;;;;;;;;;;;;26.92;39.82;101152.34;6115921;23;6783;-74
2023/10/07 12:57:51;;;;;;;;;;;;;;;26.89;39.97;101149.75;6115995;23;7066;-75
2023/10/07 13:00:23;;;;;;;;;;;;;;;26.86;39.89;101157.63;6115672;23;6770;-74
2023/10/07 13:02:54;;;;;;;;;;;;;;;26.84;39.90;101160.28;6117123;23;6797;-75
2023/10/07 13:05:24;;;;;;;;;;;;;;;26.81;39.73;101148.91;6116019;23;6914;-75
2023/10/07 13:07:53;;;;;;;;;;;;;;;26.78;39.79;101162.09;6116627;23;6910;-74
2023/10/07 13:10:20;;;;;;;;;;;;;;;26.74;39.41;101156.81;6092128;23;7021;-74
2023/10/07 13:12:49;;;;;;;;;;;;;;;26.69;39.81;101150.75;6116385;23;6778;-79
2023/10/07 13:15:15;;;;;;;;;;;;;;;26.67;39.67;101165.66;6107278;23;7316;-77
2023/10/07 13:17:46;;;;;;;;;;;;;;;26.63;39.83;101161.28;6117215;23;7011;-76
2023/10/07 13:20:20;;;;;;;;;;;;;;;26.64;39.87;101167.44;6122128;23;7028;-78
2023/10/07 13:22:48;;;;;;;;;;;;;;;26.63;39.86;101161.28;6146945;23;6895;-78
2023/10/07 13:25:14;;;;;;;;;;;;;;;26.65;39.79;101170.03;6147061;23;6957;-76
2023/10/07 13:27:40;;;;;;;;;;;;;;;26.64;39.87;101163.03;6144045;23;6767;-76
2023/10/07 13:30:12;;;;;;;;;;;;;;;26.63;39.64;101163.91;6145385;23;6783;-80
2023/10/07 13:32:46;;;;;;;;;;;;;;;26.66;40.20;101166.56;6145058;23;11327;-79
2023/10/07 13:35:15;;;;;;;;;;;;;;;26.68;40.39;101163.88;6145680;23;6918;-78
2023/10/07 13:37:51;;;;;;;;;;;;;;;26.71;40.13;101164.75;6146756;23;6876;-78
2023/10/07 13:40:20;;;;;;;;;;;;;;;26.73;40.19;101162.97;6147017;23;7121;-76
2023/10/07 13:42:49;;;;;;;;;;;;;;;26.75;39.97;101161.22;6146590;23;6782;-79
2023/10/07 13:45:23;;;;;;;;;;;;;;;26.76;40.22;101151.56;6121392;23;7082;-77
2023/10/07 13:47:50;;;;;;;;;;;;;;;26.78;40.30;101146.31;6169835;23;6982;-79
2023/10/07 13:50:20;;;;;;;;;;;;;;;26.83;40.00;101145.38;6144858;23;7009;-78
2023/10/07 13:52:50;;;;;;;;;;;;;;;26.84;40.24;101143.59;6145480;23;6783;-77
2023/10/07 13:55:33;;;;;;;;;;;;;;;26.86;40.09;101147.13;6145553;23;7198;-78
2023/10/07 13:58:00;;;;;;;;;;;;;;;26.89;40.00;101139.22;6149366;23;6786;-80
2023/10/07 14:00:35;;;;;;;;;;;;;;;26.90;39.87;101148.88;6146707;23;6778;-79
2023/10/07 14:03:22;;;;;;;;;;;;;;;26.91;39.97;101145.34;6145726;23;7089;-77
2023/10/07 14:06:01;;;;;;;;;;;;;;;26.91;40.07;101144.50;6148133;23;7076;-77